sensor_id;sensor_type;location;lat;lon;timestamp;temperature;humidity
21271;DHT22;10795;50.796;3.860;2023-07-28T00:01:33;18.10;99.90
21271;DHT22;10795;50.796;3.860;2023-07-28T00:03:59;18.20;99.90
21271;DHT22;10795;50.796;3.860;2023-07-28T00:06:38;18.20;99.90
21271;DHT22;10795;50.796;3.860;2023-07-28T00:09:07;18.20;99.90
21271;DHT22;10795;50.796;3.860;2023-07-28T00:11:32;18.10;99.90
21271;DHT22;10795;50.796;3.860;2023-07-28T00:14:01;18.20;99.90
21271;DHT22;10795;50.796;3.860;2023-07-28T00:16:33;18.30;99.90
21271;DHT22;10795;50.796;3.860;2023-07-28T00:19:03;18.20;99.90
21271;DHT22;10795;50.796;3.860;2023-07-28T00:21:29;18.20;99.90
21271;DHT22;10795;50.796;3.860;2023-07-28T00:23:57;18.10;99.90
21271;DHT22;10795;50.796;3.860;2023-07-28T00:26:30;18.20;99.90
21271;DHT22;10795;50.796;3.860;2023-07-28T00:28:59;18.20;99.90
21271;DHT22;10795;50.796;3.860;2023-07-28T00:31:28;18.20;99.90
21271;DHT22;10795;50.796;3.860;2023-07-28T00:34:14;18.20;99.90
21271;DHT22;10795;50.796;3.860;2023-07-28T00:37:05;18.20;99.90
21271;DHT22;10795;50.796;3.860;2023-07-28T00:39:34;18.10;99.90
21271;DHT22;10795;50.796;3.860;2023-07-28T00:42:00;18.10;99.90
21271;DHT22;10795;50.796;3.860;2023-07-28T00:44:36;18.10;99.90
21271;DHT22;10795;50.796;3.860;2023-07-28T00:47:05;18.10;99.90
21271;DHT22;10795;50.796;3.860;2023-07-28T00:49:43;18.10;99.90
21271;DHT22;10795;50.796;3.860;2023-07-28T00:52:18;18.10;99.90
21271;DHT22;10795;50.796;3.860;2023-07-28T00:54:47;18.10;99.90
21271;DHT22;10795;50.796;3.860;2023-07-28T00:57:15;18.00;99.90
21271;DHT22;10795;50.796;3.860;2023-07-28T00:59:45;18.10;99.90
21271;DHT22;10795;50.796;3.860;2023-07-28T01:02:14;18.20;99.90
21271;DHT22;10795;50.796;3.860;2023-07-28T01:04:44;18.20;99.90
21271;DHT22;10795;50.796;3.860;2023-07-28T01:07:53;18.20;99.90
21271;DHT22;10795;50.796;3.860;2023-07-28T01:10:31;18.10;99.90
21271;DHT22;10795;50.796;3.860;2023-07-28T01:13:02;18.20;99.90
21271;DHT22;10795;50.796;3.860;2023-07-28T01:15:31;18.20;99.90
21271;DHT22;10795;50.796;3.860;2023-07-28T01:17:59;18.20;99.90
21271;DHT22;10795;50.796;3.860;2023-07-28T01:20:36;18.10;99.90
21271;DHT22;10795;50.796;3.860;2023-07-28T01:23:34;18.20;99.90
21271;DHT22;10795;50.796;3.860;2023-07-28T01:26:12;18.20;99.90
21271;DHT22;10795;50.796;3.860;2023-07-28T01:28:40;18.20;99.90
21271;DHT22;10795;50.796;3.860;2023-07-28T01:31:09;18.20;99.90
21271;DHT22;10795;50.796;3.860;2023-07-28T01:33:38;18.20;99.90
21271;DHT22;10795;50.796;3.860;2023-07-28T01:36:06;18.20;99.90
21271;DHT22;10795;50.796;3.860;2023-07-28T01:38:37;18.20;99.90
21271;DHT22;10795;50.796;3.860;2023-07-28T01:41:06;18.20;99.90
21271;DHT22;10795;50.796;3.860;2023-07-28T01:43:34;18.10;99.90
21271;DHT22;10795;50.796;3.860;2023-07-28T01:46:03;18.10;99.90
21271;DHT22;10795;50.796;3.860;2023-07-28T01:48:36;18.10;99.90
21271;DHT22;10795;50.796;3.860;2023-07-28T01:51:05;18.10;99.90
21271;DHT22;10795;50.796;3.860;2023-07-28T01:53:36;18.00;99.90
21271;DHT22;10795;50.796;3.860;2023-07-28T01:56:14;18.00;99.90
21271;DHT22;10795;50.796;3.860;2023-07-28T01:59:17;18.00;99.90
21271;DHT22;10795;50.796;3.860;2023-07-28T02:01:45;18.00;99.90
21271;DHT22;10795;50.796;3.860;2023-07-28T02:04:13;18.00;99.90
21271;DHT22;10795;50.796;3.860;2023-07-28T02:06:43;18.00;99.90
21271;DHT22;10795;50.796;3.860;2023-07-28T02:09:09;18.10;99.90
21271;DHT22;10795;50.796;3.860;2023-07-28T02:11:46;18.10;99.90
21271;DHT22;10795;50.796;3.860;2023-07-28T02:14:19;18.10;99.90
21271;DHT22;10795;50.796;3.860;2023-07-28T02:16:53;18.10;99.90
21271;DHT22;10795;50.796;3.860;2023-07-28T02:19:40;18.00;99.90
21271;DHT22;10795;50.796;3.860;2023-07-28T02:22:11;18.00;99.90
21271;DHT22;10795;50.796;3.860;2023-07-28T02:25:07;18.00;99.90
21271;DHT22;10795;50.796;3.860;2023-07-28T02:27:46;18.00;99.90
21271;DHT22;10795;50.796;3.860;2023-07-28T02:30:33;18.00;99.90
21271;DHT22;10795;50.796;3.860;2023-07-28T02:33:18;18.10;99.90
21271;DHT22;10795;50.796;3.860;2023-07-28T02:36:19;18.00;99.90
21271;DHT22;10795;50.796;3.860;2023-07-28T02:39:03;18.00;99.90
21271;DHT22;10795;50.796;3.860;2023-07-28T02:42:14;18.10;99.90
21271;DHT22;10795;50.796;3.860;2023-07-28T02:45:07;18.00;99.90
21271;DHT22;10795;50.796;3.860;2023-07-28T02:47:38;18.10;99.90
21271;DHT22;10795;50.796;3.860;2023-07-28T02:50:14;18.10;99.90
21271;DHT22;10795;50.796;3.860;2023-07-28T02:52:50;18.10;99.90
21271;DHT22;10795;50.796;3.860;2023-07-28T02:55:21;18.10;99.90
21271;DHT22;10795;50.796;3.860;2023-07-28T02:58:02;18.10;99.90
21271;DHT22;10795;50.796;3.860;2023-07-28T03:00:42;18.10;99.90
21271;DHT22;10795;50.796;3.860;2023-07-28T03:03:32;18.20;99.90
21271;DHT22;10795;50.796;3.860;2023-07-28T03:06:06;18.20;99.90
21271;DHT22;10795;50.796;3.860;2023-07-28T03:09:12;18.20;99.90
21271;DHT22;10795;50.796;3.860;2023-07-28T03:12:00;18.20;99.90
21271;DHT22;10795;50.796;3.860;2023-07-28T03:14:46;18.20;99.90
21271;DHT22;10795;50.796;3.860;2023-07-28T03:17:28;18.20;99.90
21271;DHT22;10795;50.796;3.860;2023-07-28T03:20:30;18.20;99.90
21271;DHT22;10795;50.796;3.860;2023-07-28T03:23:39;18.10;99.90
21271;DHT22;10795;50.796;3.860;2023-07-28T03:30:00;18.10;99.90
21271;DHT22;10795;50.796;3.860;2023-07-28T03:32:39;18.00;99.90
21271;DHT22;10795;50.796;3.860;2023-07-28T03:35:16;18.00;99.90
21271;DHT22;10795;50.796;3.860;2023-07-28T03:38:12;18.10;99.90
21271;DHT22;10795;50.796;3.860;2023-07-28T03:41:04;18.00;99.90
21271;DHT22;10795;50.796;3.860;2023-07-28T03:44:02;18.10;99.90
21271;DHT22;10795;50.796;3.860;2023-07-28T03:46:50;18.20;99.90
21271;DHT22;10795;50.796;3.860;2023-07-28T03:52:36;18.20;99.90
21271;DHT22;10795;50.796;3.860;2023-07-28T03:55:14;18.10;99.90
21271;DHT22;10795;50.796;3.860;2023-07-28T03:58:00;18.10;99.90
21271;DHT22;10795;50.796;3.860;2023-07-28T04:01:24;18.00;99.90
21271;DHT22;10795;50.796;3.860;2023-07-28T04:04:11;18.10;99.90
21271;DHT22;10795;50.796;3.860;2023-07-28T04:07:04;18.10;99.90
21271;DHT22;10795;50.796;3.860;2023-07-28T04:09:57;18.10;99.90
21271;DHT22;10795;50.796;3.860;2023-07-28T04:17:05;18.20;99.90
21271;DHT22;10795;50.796;3.860;2023-07-28T04:24:01;18.10;99.90
21271;DHT22;10795;50.796;3.860;2023-07-28T04:33:55;18.10;99.90
21271;DHT22;10795;50.796;3.860;2023-07-28T04:37:19;18.20;99.90
21271;DHT22;10795;50.796;3.860;2023-07-28T04:40:00;18.20;99.90
21271;DHT22;10795;50.796;3.860;2023-07-28T04:42:31;18.10;99.90
21271;DHT22;10795;50.796;3.860;2023-07-28T04:45:00;18.10;99.90
21271;DHT22;10795;50.796;3.860;2023-07-28T04:47:26;18.10;99.90
21271;DHT22;10795;50.796;3.860;2023-07-28T04:49:54;18.10;99.90
21271;DHT22;10795;50.796;3.860;2023-07-28T04:52:43;18.20;99.90
21271;DHT22;10795;50.796;3.860;2023-07-28T04:55:29;18.20;99.90
21271;DHT22;10795;50.796;3.860;2023-07-28T04:58:15;18.10;99.90
21271;DHT22;10795;50.796;3.860;2023-07-28T05:01:15;18.30;99.90
21271;DHT22;10795;50.796;3.860;2023-07-28T05:04:16;18.40;99.90
21271;DHT22;10795;50.796;3.860;2023-07-28T05:07:12;18.40;99.90
21271;DHT22;10795;50.796;3.860;2023-07-28T05:09:48;18.30;99.90
21271;DHT22;10795;50.796;3.860;2023-07-28T05:12:29;18.40;99.90
21271;DHT22;10795;50.796;3.860;2023-07-28T05:15:15;18.40;99.90
21271;DHT22;10795;50.796;3.860;2023-07-28T05:17:54;18.40;99.90
21271;DHT22;10795;50.796;3.860;2023-07-28T05:31:52;18.40;99.90
21271;DHT22;10795;50.796;3.860;2023-07-28T05:35:04;18.40;99.90
21271;DHT22;10795;50.796;3.860;2023-07-28T05:48:50;18.40;99.90
21271;DHT22;10795;50.796;3.860;2023-07-28T05:51:44;18.40;99.90
21271;DHT22;10795;50.796;3.860;2023-07-28T06:02:33;18.60;99.90
21271;DHT22;10795;50.796;3.860;2023-07-28T06:05:19;18.60;99.90
21271;DHT22;10795;50.796;3.860;2023-07-28T06:43:50;19.20;99.90
21271;DHT22;10795;50.796;3.860;2023-07-28T06:50:42;19.40;99.90
21271;DHT22;10795;50.796;3.860;2023-07-28T06:53:53;19.40;99.90
21271;DHT22;10795;50.796;3.860;2023-07-28T06:56:37;19.70;99.90
21271;DHT22;10795;50.796;3.860;2023-07-28T06:59:21;19.80;99.90
21271;DHT22;10795;50.796;3.860;2023-07-28T07:01:49;19.90;99.90
21271;DHT22;10795;50.796;3.860;2023-07-28T07:04:18;20.00;99.90
21271;DHT22;10795;50.796;3.860;2023-07-28T07:06:47;20.00;99.90
21271;DHT22;10795;50.796;3.860;2023-07-28T07:09:13;20.00;99.90
21271;DHT22;10795;50.796;3.860;2023-07-28T07:11:41;19.90;99.90
21271;DHT22;10795;50.796;3.860;2023-07-28T07:14:07;19.80;99.90
21271;DHT22;10795;50.796;3.860;2023-07-28T07:16:34;19.90;99.90
21271;DHT22;10795;50.796;3.860;2023-07-28T07:19:00;19.90;99.90
21271;DHT22;10795;50.796;3.860;2023-07-28T07:21:27;19.90;99.90
21271;DHT22;10795;50.796;3.860;2023-07-28T07:23:53;19.70;99.90
21271;DHT22;10795;50.796;3.860;2023-07-28T07:26:25;19.90;99.90
21271;DHT22;10795;50.796;3.860;2023-07-28T07:28:51;20.00;99.90
21271;DHT22;10795;50.796;3.860;2023-07-28T07:31:17;20.00;99.90
21271;DHT22;10795;50.796;3.860;2023-07-28T07:33:43;20.10;99.90
21271;DHT22;10795;50.796;3.860;2023-07-28T07:36:19;20.10;99.90
21271;DHT22;10795;50.796;3.860;2023-07-28T07:38:46;20.10;99.90
21271;DHT22;10795;50.796;3.860;2023-07-28T07:41:12;20.10;99.90
21271;DHT22;10795;50.796;3.860;2023-07-28T07:43:41;19.90;99.90
21271;DHT22;10795;50.796;3.860;2023-07-28T07:46:07;19.90;99.90
21271;DHT22;10795;50.796;3.860;2023-07-28T07:48:33;19.90;99.90
21271;DHT22;10795;50.796;3.860;2023-07-28T07:51:00;19.90;99.90
21271;DHT22;10795;50.796;3.860;2023-07-28T07:53:25;20.00;99.90
21271;DHT22;10795;50.796;3.860;2023-07-28T07:55:51;19.90;99.90
21271;DHT22;10795;50.796;3.860;2023-07-28T07:58:17;19.90;99.90
21271;DHT22;10795;50.796;3.860;2023-07-28T08:00:43;19.90;99.90
21271;DHT22;10795;50.796;3.860;2023-07-28T08:03:09;19.90;99.90
21271;DHT22;10795;50.796;3.860;2023-07-28T08:05:35;19.90;99.90
21271;DHT22;10795;50.796;3.860;2023-07-28T08:08:01;19.90;99.90
21271;DHT22;10795;50.796;3.860;2023-07-28T08:10:27;20.10;99.90
21271;DHT22;10795;50.796;3.860;2023-07-28T08:12:55;20.00;99.90
21271;DHT22;10795;50.796;3.860;2023-07-28T08:15:20;19.90;99.90
21271;DHT22;10795;50.796;3.860;2023-07-28T08:17:46;19.90;99.90
21271;DHT22;10795;50.796;3.860;2023-07-28T08:20:12;19.80;99.90
21271;DHT22;10795;50.796;3.860;2023-07-28T08:22:38;19.90;99.90
21271;DHT22;10795;50.796;3.860;2023-07-28T08:25:05;20.20;99.90
21271;DHT22;10795;50.796;3.860;2023-07-28T08:27:30;20.30;99.90
21271;DHT22;10795;50.796;3.860;2023-07-28T08:29:56;20.90;99.90
21271;DHT22;10795;50.796;3.860;2023-07-28T08:32:22;21.10;99.90
21271;DHT22;10795;50.796;3.860;2023-07-28T08:34:48;21.10;99.90
21271;DHT22;10795;50.796;3.860;2023-07-28T08:37:14;21.10;99.90
21271;DHT22;10795;50.796;3.860;2023-07-28T08:39:39;21.10;99.90
21271;DHT22;10795;50.796;3.860;2023-07-28T08:42:05;21.10;99.90
21271;DHT22;10795;50.796;3.860;2023-07-28T08:44:32;20.90;99.90
21271;DHT22;10795;50.796;3.860;2023-07-28T08:47:00;20.90;99.90
21271;DHT22;10795;50.796;3.860;2023-07-28T08:49:26;20.90;99.90
21271;DHT22;10795;50.796;3.860;2023-07-28T08:51:56;20.70;99.90
21271;DHT22;10795;50.796;3.860;2023-07-28T08:54:23;21.00;99.90
21271;DHT22;10795;50.796;3.860;2023-07-28T08:56:49;21.00;99.90
21271;DHT22;10795;50.796;3.860;2023-07-28T08:59:23;20.70;99.90
21271;DHT22;10795;50.796;3.860;2023-07-28T09:01:51;20.90;99.90
21271;DHT22;10795;50.796;3.860;2023-07-28T09:04:17;21.00;99.90
21271;DHT22;10795;50.796;3.860;2023-07-28T09:06:48;21.00;99.90
21271;DHT22;10795;50.796;3.860;2023-07-28T09:09:15;20.90;99.90
21271;DHT22;10795;50.796;3.860;2023-07-28T09:11:51;21.00;99.90
21271;DHT22;10795;50.796;3.860;2023-07-28T09:14:18;20.90;99.90
21271;DHT22;10795;50.796;3.860;2023-07-28T09:16:47;20.80;99.90
21271;DHT22;10795;50.796;3.860;2023-07-28T09:19:13;20.70;99.90
21271;DHT22;10795;50.796;3.860;2023-07-28T09:21:42;20.70;99.90
21271;DHT22;10795;50.796;3.860;2023-07-28T09:24:12;20.60;99.90
21271;DHT22;10795;50.796;3.860;2023-07-28T09:26:44;20.70;99.90
21271;DHT22;10795;50.796;3.860;2023-07-28T09:29:16;20.60;99.90
21271;DHT22;10795;50.796;3.860;2023-07-28T09:31:46;20.70;99.90
21271;DHT22;10795;50.796;3.860;2023-07-28T09:34:22;20.80;99.90
21271;DHT22;10795;50.796;3.860;2023-07-28T09:36:49;21.10;99.90
21271;DHT22;10795;50.796;3.860;2023-07-28T09:39:15;21.00;99.90
21271;DHT22;10795;50.796;3.860;2023-07-28T09:41:44;21.10;99.90
21271;DHT22;10795;50.796;3.860;2023-07-28T09:44:10;21.40;99.90
21271;DHT22;10795;50.796;3.860;2023-07-28T09:46:51;21.30;99.90
21271;DHT22;10795;50.796;3.860;2023-07-28T09:49:28;21.50;99.90
21271;DHT22;10795;50.796;3.860;2023-07-28T09:52:03;21.40;99.90
21271;DHT22;10795;50.796;3.860;2023-07-28T09:54:30;21.40;99.90
21271;DHT22;10795;50.796;3.860;2023-07-28T09:57:19;21.50;99.90
21271;DHT22;10795;50.796;3.860;2023-07-28T09:59:47;21.50;99.90
21271;DHT22;10795;50.796;3.860;2023-07-28T10:02:13;21.80;99.90
21271;DHT22;10795;50.796;3.860;2023-07-28T10:04:40;21.80;99.90
21271;DHT22;10795;50.796;3.860;2023-07-28T10:07:07;21.60;99.90
21271;DHT22;10795;50.796;3.860;2023-07-28T10:09:34;21.70;99.90
21271;DHT22;10795;50.796;3.860;2023-07-28T10:12:02;21.80;99.90
21271;DHT22;10795;50.796;3.860;2023-07-28T10:14:38;21.90;99.90
21271;DHT22;10795;50.796;3.860;2023-07-28T10:17:05;21.70;99.90
21271;DHT22;10795;50.796;3.860;2023-07-28T10:19:35;21.50;99.90
21271;DHT22;10795;50.796;3.860;2023-07-28T10:22:06;21.70;99.90
21271;DHT22;10795;50.796;3.860;2023-07-28T10:24:52;21.60;99.90
21271;DHT22;10795;50.796;3.860;2023-07-28T10:27:32;21.60;99.90
21271;DHT22;10795;50.796;3.860;2023-07-28T10:30:02;21.50;99.90
21271;DHT22;10795;50.796;3.860;2023-07-28T10:32:37;21.60;99.90
21271;DHT22;10795;50.796;3.860;2023-07-28T10:37:37;22.30;99.90
21271;DHT22;10795;50.796;3.860;2023-07-28T10:42:54;22.40;99.90
21271;DHT22;10795;50.796;3.860;2023-07-28T10:45:23;22.80;99.90
21271;DHT22;10795;50.796;3.860;2023-07-28T10:47:49;22.70;99.90
21271;DHT22;10795;50.796;3.860;2023-07-28T10:50:15;22.80;99.90
21271;DHT22;10795;50.796;3.860;2023-07-28T10:52:59;22.90;99.90
21271;DHT22;10795;50.796;3.860;2023-07-28T10:55:30;23.20;99.90
21271;DHT22;10795;50.796;3.860;2023-07-28T10:57:56;23.40;99.90
21271;DHT22;10795;50.796;3.860;2023-07-28T11:00:23;23.70;99.90
21271;DHT22;10795;50.796;3.860;2023-07-28T11:02:51;23.50;99.90
21271;DHT22;10795;50.796;3.860;2023-07-28T11:05:24;23.90;99.90
21271;DHT22;10795;50.796;3.860;2023-07-28T11:07:56;24.20;99.90
21271;DHT22;10795;50.796;3.860;2023-07-28T11:10:22;24.20;99.90
21271;DHT22;10795;50.796;3.860;2023-07-28T11:12:49;24.20;99.90
21271;DHT22;10795;50.796;3.860;2023-07-28T11:15:17;24.30;99.90
21271;DHT22;10795;50.796;3.860;2023-07-28T11:17:49;24.70;99.90
21271;DHT22;10795;50.796;3.860;2023-07-28T11:20:22;24.90;99.90
21271;DHT22;10795;50.796;3.860;2023-07-28T11:22:58;25.00;99.90
21271;DHT22;10795;50.796;3.860;2023-07-28T11:25:27;24.80;99.90
21271;DHT22;10795;50.796;3.860;2023-07-28T11:27:54;24.70;99.90
21271;DHT22;10795;50.796;3.860;2023-07-28T11:30:23;24.60;99.90
21271;DHT22;10795;50.796;3.860;2023-07-28T11:32:51;24.50;99.90
21271;DHT22;10795;50.796;3.860;2023-07-28T11:35:22;24.30;99.90
21271;DHT22;10795;50.796;3.860;2023-07-28T11:37:49;24.30;99.90
21271;DHT22;10795;50.796;3.860;2023-07-28T11:40:18;24.10;99.90
21271;DHT22;10795;50.796;3.860;2023-07-28T11:42:47;24.20;99.90
21271;DHT22;10795;50.796;3.860;2023-07-28T11:45:16;24.00;99.90
21271;DHT22;10795;50.796;3.860;2023-07-28T11:48:00;24.10;99.90
21271;DHT22;10795;50.796;3.860;2023-07-28T11:50:28;23.90;99.90
21271;DHT22;10795;50.796;3.860;2023-07-28T11:52:56;23.70;99.90
21271;DHT22;10795;50.796;3.860;2023-07-28T11:55:23;23.90;99.90
21271;DHT22;10795;50.796;3.860;2023-07-28T11:57:50;23.50;99.90
21271;DHT22;10795;50.796;3.860;2023-07-28T12:00:16;23.20;99.90
21271;DHT22;10795;50.796;3.860;2023-07-28T12:02:43;23.50;99.90
21271;DHT22;10795;50.796;3.860;2023-07-28T12:05:13;23.40;99.90
21271;DHT22;10795;50.796;3.860;2023-07-28T12:07:40;23.50;99.90
21271;DHT22;10795;50.796;3.860;2023-07-28T12:10:07;23.80;99.90
21271;DHT22;10795;50.796;3.860;2023-07-28T12:12:43;24.10;99.90
21271;DHT22;10795;50.796;3.860;2023-07-28T12:15:29;24.60;99.90
21271;DHT22;10795;50.796;3.860;2023-07-28T12:18:15;24.60;99.90
21271;DHT22;10795;50.796;3.860;2023-07-28T12:20:43;24.90;99.90
21271;DHT22;10795;50.796;3.860;2023-07-28T12:23:14;24.60;99.90
21271;DHT22;10795;50.796;3.860;2023-07-28T12:25:41;25.20;99.90
21271;DHT22;10795;50.796;3.860;2023-07-28T12:28:08;24.80;99.90
21271;DHT22;10795;50.796;3.860;2023-07-28T12:30:34;25.00;99.90
21271;DHT22;10795;50.796;3.860;2023-07-28T12:33:00;25.00;99.90
21271;DHT22;10795;50.796;3.860;2023-07-28T12:35:27;24.80;99.90
21271;DHT22;10795;50.796;3.860;2023-07-28T12:38:06;24.80;99.90
21271;DHT22;10795;50.796;3.860;2023-07-28T12:40:34;24.70;99.90
21271;DHT22;10795;50.796;3.860;2023-07-28T12:43:02;23.90;99.90
21271;DHT22;10795;50.796;3.860;2023-07-28T12:45:28;24.20;99.90
21271;DHT22;10795;50.796;3.860;2023-07-28T12:47:54;24.80;99.90
21271;DHT22;10795;50.796;3.860;2023-07-28T12:50:21;25.10;99.90
21271;DHT22;10795;50.796;3.860;2023-07-28T12:52:48;25.50;99.90
21271;DHT22;10795;50.796;3.860;2023-07-28T12:55:14;26.00;99.90
21271;DHT22;10795;50.796;3.860;2023-07-28T12:57:40;26.30;99.90
21271;DHT22;10795;50.796;3.860;2023-07-28T13:00:07;26.10;99.90
21271;DHT22;10795;50.796;3.860;2023-07-28T13:02:42;25.80;99.90
21271;DHT22;10795;50.796;3.860;2023-07-28T13:05:09;25.50;99.90
21271;DHT22;10795;50.796;3.860;2023-07-28T13:07:37;25.00;99.90
21271;DHT22;10795;50.796;3.860;2023-07-28T13:10:03;25.00;99.90
21271;DHT22;10795;50.796;3.860;2023-07-28T13:12:29;25.00;99.90
21271;DHT22;10795;50.796;3.860;2023-07-28T13:14:55;24.70;99.90
21271;DHT22;10795;50.796;3.860;2023-07-28T13:17:21;24.40;99.90
21271;DHT22;10795;50.796;3.860;2023-07-28T13:19:47;24.40;99.90
21271;DHT22;10795;50.796;3.860;2023-07-28T13:22:13;24.60;99.90
21271;DHT22;10795;50.796;3.860;2023-07-28T13:24:39;24.80;99.90
21271;DHT22;10795;50.796;3.860;2023-07-28T13:27:05;24.40;99.90
21271;DHT22;10795;50.796;3.860;2023-07-28T13:29:31;24.10;99.90
21271;DHT22;10795;50.796;3.860;2023-07-28T13:32:00;24.10;99.90
21271;DHT22;10795;50.796;3.860;2023-07-28T13:34:27;24.10;99.90
21271;DHT22;10795;50.796;3.860;2023-07-28T13:36:54;24.70;99.90
21271;DHT22;10795;50.796;3.860;2023-07-28T13:39:20;24.80;99.90
21271;DHT22;10795;50.796;3.860;2023-07-28T13:41:46;24.90;99.90
21271;DHT22;10795;50.796;3.860;2023-07-28T13:44:12;24.60;99.90
21271;DHT22;10795;50.796;3.860;2023-07-28T13:46:38;24.60;99.90
21271;DHT22;10795;50.796;3.860;2023-07-28T13:49:03;24.90;99.90
21271;DHT22;10795;50.796;3.860;2023-07-28T13:51:29;25.00;99.90
21271;DHT22;10795;50.796;3.860;2023-07-28T13:53:55;25.10;99.90
21271;DHT22;10795;50.796;3.860;2023-07-28T13:56:21;24.70;99.90
21271;DHT22;10795;50.796;3.860;2023-07-28T13:58:47;25.00;99.90
21271;DHT22;10795;50.796;3.860;2023-07-28T14:01:12;25.10;99.90
21271;DHT22;10795;50.796;3.860;2023-07-28T14:03:38;24.80;99.90
21271;DHT22;10795;50.796;3.860;2023-07-28T14:06:04;25.00;99.90
21271;DHT22;10795;50.796;3.860;2023-07-28T14:08:30;25.20;99.90
21271;DHT22;10795;50.796;3.860;2023-07-28T14:10:56;25.20;99.90
21271;DHT22;10795;50.796;3.860;2023-07-28T14:13:22;25.20;99.90
21271;DHT22;10795;50.796;3.860;2023-07-28T14:15:49;25.40;99.90
21271;DHT22;10795;50.796;3.860;2023-07-28T14:18:15;25.20;99.90
21271;DHT22;10795;50.796;3.860;2023-07-28T14:20:41;25.10;99.90
21271;DHT22;10795;50.796;3.860;2023-07-28T14:23:27;25.00;99.90
21271;DHT22;10795;50.796;3.860;2023-07-28T14:25:53;25.50;99.90
21271;DHT22;10795;50.796;3.860;2023-07-28T14:28:20;25.50;99.90
21271;DHT22;10795;50.796;3.860;2023-07-28T14:30:47;25.50;99.90
21271;DHT22;10795;50.796;3.860;2023-07-28T14:33:14;25.70;99.90
21271;DHT22;10795;50.796;3.860;2023-07-28T14:35:41;25.80;99.90
21271;DHT22;10795;50.796;3.860;2023-07-28T14:38:07;25.40;99.90
21271;DHT22;10795;50.796;3.860;2023-07-28T14:40:33;25.70;99.90
21271;DHT22;10795;50.796;3.860;2023-07-28T14:42:59;25.70;99.90
21271;DHT22;10795;50.796;3.860;2023-07-28T14:45:25;25.70;99.90
21271;DHT22;10795;50.796;3.860;2023-07-28T14:47:50;25.50;99.90
21271;DHT22;10795;50.796;3.860;2023-07-28T14:50:16;25.50;99.90
21271;DHT22;10795;50.796;3.860;2023-07-28T14:52:43;25.30;99.90
21271;DHT22;10795;50.796;3.860;2023-07-28T14:55:10;25.20;99.90
21271;DHT22;10795;50.796;3.860;2023-07-28T14:57:36;25.30;99.90
21271;DHT22;10795;50.796;3.860;2023-07-28T15:00:05;25.20;99.90
21271;DHT22;10795;50.796;3.860;2023-07-28T15:02:33;25.50;99.90
21271;DHT22;10795;50.796;3.860;2023-07-28T15:05:01;25.60;99.90
21271;DHT22;10795;50.796;3.860;2023-07-28T15:07:27;25.70;99.90
21271;DHT22;10795;50.796;3.860;2023-07-28T15:09:53;25.70;99.90
21271;DHT22;10795;50.796;3.860;2023-07-28T15:12:19;25.80;99.90
21271;DHT22;10795;50.796;3.860;2023-07-28T15:14:48;26.00;99.90
21271;DHT22;10795;50.796;3.860;2023-07-28T15:17:14;26.00;99.90
21271;DHT22;10795;50.796;3.860;2023-07-28T15:19:40;25.90;99.90
21271;DHT22;10795;50.796;3.860;2023-07-28T15:22:05;25.90;99.90
21271;DHT22;10795;50.796;3.860;2023-07-28T15:24:34;25.80;99.90
21271;DHT22;10795;50.796;3.860;2023-07-28T15:27:00;25.80;99.90
21271;DHT22;10795;50.796;3.860;2023-07-28T15:29:26;26.10;99.90
21271;DHT22;10795;50.796;3.860;2023-07-28T15:31:51;26.00;99.90
21271;DHT22;10795;50.796;3.860;2023-07-28T15:34:19;26.00;99.90
21271;DHT22;10795;50.796;3.860;2023-07-28T15:36:46;25.90;99.90
21271;DHT22;10795;50.796;3.860;2023-07-28T15:39:11;25.70;99.90
21271;DHT22;10795;50.796;3.860;2023-07-28T15:41:37;25.70;99.90
21271;DHT22;10795;50.796;3.860;2023-07-28T15:44:03;25.70;99.90
21271;DHT22;10795;50.796;3.860;2023-07-28T15:46:29;25.70;99.90
21271;DHT22;10795;50.796;3.860;2023-07-28T15:48:55;25.40;99.90
21271;DHT22;10795;50.796;3.860;2023-07-28T15:51:21;25.30;99.90
21271;DHT22;10795;50.796;3.860;2023-07-28T15:53:46;25.10;99.90
21271;DHT22;10795;50.796;3.860;2023-07-28T15:56:15;25.20;99.90
21271;DHT22;10795;50.796;3.860;2023-07-28T15:58:43;25.50;99.90
21271;DHT22;10795;50.796;3.860;2023-07-28T16:01:09;25.70;99.90
21271;DHT22;10795;50.796;3.860;2023-07-28T16:03:37;25.70;99.90
21271;DHT22;10795;50.796;3.860;2023-07-28T16:06:03;25.70;99.90
21271;DHT22;10795;50.796;3.860;2023-07-28T16:08:29;25.60;99.90
21271;DHT22;10795;50.796;3.860;2023-07-28T16:10:55;25.50;99.90
21271;DHT22;10795;50.796;3.860;2023-07-28T16:13:21;25.70;99.90
21271;DHT22;10795;50.796;3.860;2023-07-28T16:15:47;25.60;99.90
21271;DHT22;10795;50.796;3.860;2023-07-28T16:18:15;25.50;99.90
21271;DHT22;10795;50.796;3.860;2023-07-28T16:20:41;25.30;99.90
21271;DHT22;10795;50.796;3.860;2023-07-28T16:23:07;25.50;99.90
21271;DHT22;10795;50.796;3.860;2023-07-28T16:25:33;25.70;99.90
21271;DHT22;10795;50.796;3.860;2023-07-28T16:27:58;25.20;99.90
21271;DHT22;10795;50.796;3.860;2023-07-28T16:30:24;25.10;99.90
21271;DHT22;10795;50.796;3.860;2023-07-28T16:32:50;24.80;99.90
21271;DHT22;10795;50.796;3.860;2023-07-28T16:35:16;24.70;99.90
21271;DHT22;10795;50.796;3.860;2023-07-28T16:37:47;24.80;99.90
21271;DHT22;10795;50.796;3.860;2023-07-28T16:40:16;24.70;99.90
21271;DHT22;10795;50.796;3.860;2023-07-28T16:42:41;24.60;99.90
21271;DHT22;10795;50.796;3.860;2023-07-28T16:45:07;24.60;99.90
21271;DHT22;10795;50.796;3.860;2023-07-28T16:47:33;24.70;99.90
21271;DHT22;10795;50.796;3.860;2023-07-28T16:50:06;24.90;99.90
21271;DHT22;10795;50.796;3.860;2023-07-28T16:52:33;25.20;99.90
21271;DHT22;10795;50.796;3.860;2023-07-28T16:55:02;25.20;99.90
21271;DHT22;10795;50.796;3.860;2023-07-28T16:57:28;25.20;99.90
21271;DHT22;10795;50.796;3.860;2023-07-28T16:59:53;25.10;99.90
21271;DHT22;10795;50.796;3.860;2023-07-28T17:02:19;25.20;99.90
21271;DHT22;10795;50.796;3.860;2023-07-28T17:04:45;25.10;99.90
21271;DHT22;10795;50.796;3.860;2023-07-28T17:07:11;25.20;99.90
21271;DHT22;10795;50.796;3.860;2023-07-28T17:09:39;25.30;99.90
21271;DHT22;10795;50.796;3.860;2023-07-28T17:12:05;25.20;99.90
21271;DHT22;10795;50.796;3.860;2023-07-28T17:14:31;25.00;99.90
21271;DHT22;10795;50.796;3.860;2023-07-28T17:16:56;24.90;99.90
21271;DHT22;10795;50.796;3.860;2023-07-28T17:19:22;24.70;99.90
21271;DHT22;10795;50.796;3.860;2023-07-28T17:21:48;25.00;99.90
21271;DHT22;10795;50.796;3.860;2023-07-28T17:24:14;24.90;99.90
21271;DHT22;10795;50.796;3.860;2023-07-28T17:26:40;24.90;99.90
21271;DHT22;10795;50.796;3.860;2023-07-28T17:29:05;24.90;99.90
21271;DHT22;10795;50.796;3.860;2023-07-28T17:31:31;24.70;99.90
21271;DHT22;10795;50.796;3.860;2023-07-28T17:33:58;24.70;99.90
21271;DHT22;10795;50.796;3.860;2023-07-28T17:36:24;24.70;99.90
21271;DHT22;10795;50.796;3.860;2023-07-28T17:38:50;24.40;99.90